Utida, Utah
Current Conditions -  °F | °C
As of 10:51 PM on Tuesday 27 Jan 2015 (Local Time) from KLGU Reporting Station
Haze Haze  
Wind Chill: 37°   Ceiling: 4400
Heat Index: 37°   Visibility: 4mi
Dew Point: 35°   Wind: 0mph
Humidity: 93%   Direction: NA
Pressure: 30.16"   Gusts: NA
Location:  41.9655°N, 112.049°W
Report Text: KLGU 280551Z AUTO 00000KT 4SM BR BKN044 OVC080 03/02 A3016 RMK AO2 SLP224 60005 T00280017 10050 20017 50004
Loading
Personal Weather Stations






























Interactive Weather Map New forecast layout! Learn more

10-Day Weather Forecast

Advertisements
Track Severe Weather on mobile